createdAt,value
2018-05-26T00:00:20.989Z,0.00
2018-05-26T00:01:20.980Z,0.00
2018-05-26T00:02:20.968Z,0.00
2018-05-26T00:03:20.957Z,0.00
2018-05-26T00:04:20.946Z,0.00
2018-05-26T00:05:20.944Z,0.00
2018-05-26T00:06:20.939Z,0.00
2018-05-26T00:07:20.915Z,0.00
2018-05-26T00:08:20.906Z,0.00
2018-05-26T00:09:20.889Z,0.00
2018-05-26T00:10:20.886Z,0.00
2018-05-26T00:11:20.982Z,0.00
2018-05-26T00:12:20.873Z,0.00
2018-05-26T00:13:20.858Z,0.00
2018-05-26T00:14:20.844Z,0.00
2018-05-26T00:15:20.832Z,0.00
2018-05-26T00:16:20.826Z,0.00
2018-05-26T00:17:20.811Z,0.00
2018-05-26T00:18:20.800Z,0.00
2018-05-26T00:19:20.879Z,0.00
2018-05-26T00:20:20.782Z,0.00
2018-05-26T00:21:20.848Z,0.00
2018-05-26T00:22:20.758Z,0.00
2018-05-26T00:23:20.848Z,0.00
2018-05-26T00:24:20.743Z,0.00
2018-05-26T00:25:20.791Z,0.00
2018-05-26T00:26:20.722Z,0.00
2018-05-26T00:27:20.758Z,0.00
2018-05-26T00:28:20.700Z,0.00
2018-05-26T00:29:20.747Z,0.00
2018-05-26T00:30:20.681Z,0.00
2018-05-26T00:31:20.672Z,0.00
2018-05-26T00:32:20.652Z,0.00
2018-05-26T00:33:20.697Z,0.00
2018-05-26T00:34:20.636Z,0.00
2018-05-26T00:35:20.627Z,0.00
2018-05-26T00:36:20.621Z,0.00
2018-05-26T00:37:20.598Z,0.00
2018-05-26T00:38:20.595Z,0.00
2018-05-26T00:39:20.590Z,0.00
2018-05-26T00:40:20.582Z,0.00
2018-05-26T00:41:20.566Z,0.00
2018-05-26T00:42:20.552Z,0.00
2018-05-26T00:43:20.544Z,0.00
2018-05-26T00:44:20.534Z,0.00
2018-05-26T00:45:20.523Z,0.00
2018-05-26T00:46:20.504Z,0.00
2018-05-26T00:47:20.500Z,0.00
2018-05-26T00:48:20.489Z,0.00
2018-05-26T00:49:20.482Z,0.00
2018-05-26T00:50:20.469Z,0.00
2018-05-26T00:51:20.463Z,0.00
2018-05-26T00:52:20.456Z,0.00
2018-05-26T00:53:20.440Z,0.00
2018-05-26T00:54:20.427Z,0.00
2018-05-26T00:55:20.418Z,0.00
2018-05-26T00:56:20.408Z,0.00
2018-05-26T00:57:20.405Z,0.00
2018-05-26T00:58:20.386Z,0.00
2018-05-26T00:59:20.373Z,0.00
2018-05-26T01:00:20.358Z,0.00
2018-05-26T01:01:20.347Z,0.00
2018-05-26T01:02:20.339Z,0.00
2018-05-26T01:03:20.329Z,0.00
2018-05-26T01:04:20.324Z,0.00
2018-05-26T01:05:20.314Z,0.00
2018-05-26T01:06:20.384Z,0.00
2018-05-26T01:07:20.287Z,0.00
2018-05-26T01:08:20.373Z,0.00
2018-05-26T01:09:20.268Z,0.00
2018-05-26T01:10:20.256Z,0.00
2018-05-26T01:11:20.250Z,0.00
2018-05-26T01:12:20.237Z,0.00
2018-05-26T01:13:20.228Z,0.00
2018-05-26T01:14:20.215Z,0.00
2018-05-26T01:15:20.208Z,0.00
2018-05-26T01:16:20.199Z,0.00
2018-05-26T01:17:20.183Z,0.00
2018-05-26T01:18:20.168Z,0.00
2018-05-26T01:19:20.154Z,0.00
2018-05-26T01:20:20.148Z,0.00
2018-05-26T01:21:20.138Z,0.00
2018-05-26T01:22:20.125Z,0.00
2018-05-26T01:23:20.113Z,0.00
2018-05-26T01:24:20.113Z,0.00
2018-05-26T01:26:20.088Z,0.00
2018-05-26T01:27:20.077Z,0.00
2018-05-26T01:28:20.068Z,0.00
2018-05-26T01:29:20.058Z,0.00
2018-05-26T01:30:20.055Z,0.00
2018-05-26T01:31:20.033Z,0.00
2018-05-26T01:32:20.024Z,0.00
2018-05-26T01:33:20.018Z,0.00
2018-05-26T01:34:19.999Z,0.00
2018-05-26T01:35:19.989Z,0.00
2018-05-26T01:36:19.987Z,0.00
2018-05-26T01:37:19.965Z,0.00
2018-05-26T01:38:19.962Z,0.00
2018-05-26T01:39:19.948Z,0.00
2018-05-26T01:40:19.935Z,0.00
2018-05-26T01:41:19.919Z,0.00
2018-05-26T01:42:19.925Z,0.00
2018-05-26T01:43:19.908Z,0.00
2018-05-26T01:44:19.902Z,0.00
2018-05-26T01:45:19.876Z,0.00
2018-05-26T01:46:19.870Z,0.00
2018-05-26T01:48:19.890Z,0.00
2018-05-26T01:49:19.834Z,0.00
2018-05-26T01:50:19.830Z,0.00
2018-05-26T01:51:19.819Z,0.00
2018-05-26T01:52:19.812Z,0.00
2018-05-26T01:53:19.794Z,0.00
2018-05-26T01:54:19.784Z,0.00
2018-05-26T01:55:19.783Z,0.00
2018-05-26T01:56:19.762Z,0.00
2018-05-26T01:57:19.748Z,0.00
2018-05-26T01:58:19.739Z,0.00
2018-05-26T01:59:19.732Z,0.00
2018-05-26T02:00:19.724Z,0.00
2018-05-26T02:01:19.708Z,0.00
2018-05-26T02:02:19.691Z,0.00
2018-05-26T02:03:19.688Z,0.00
2018-05-26T02:04:19.682Z,0.00
2018-05-26T02:05:19.659Z,0.00
2018-05-26T02:06:19.656Z,0.00
2018-05-26T02:07:19.642Z,0.00
2018-05-26T02:08:19.629Z,0.00
2018-05-26T02:09:19.618Z,0.00
2018-05-26T02:10:19.608Z,0.00
2018-05-26T02:11:19.603Z,0.00
2018-05-26T02:12:19.592Z,0.00
2018-05-26T02:13:19.588Z,0.00
2018-05-26T02:14:19.567Z,0.00
2018-05-26T02:15:19.558Z,0.00
2018-05-26T02:16:19.544Z,0.00
2018-05-26T02:17:19.546Z,0.00
2018-05-26T02:18:19.525Z,0.00
2018-05-26T02:19:19.513Z,0.00
2018-05-26T02:20:19.505Z,0.00
2018-05-26T02:21:19.541Z,0.00
2018-05-26T02:23:19.523Z,0.00
2018-05-26T02:24:19.452Z,0.00
2018-05-26T02:25:19.450Z,0.00
2018-05-26T02:26:19.434Z,0.00
2018-05-26T02:27:19.425Z,0.00
2018-05-26T02:28:19.414Z,0.00
2018-05-26T02:29:19.397Z,0.00
2018-05-26T02:30:19.389Z,0.00
2018-05-26T02:31:19.383Z,0.00
2018-05-26T02:32:19.371Z,0.00
2018-05-26T02:33:19.363Z,0.00
2018-05-26T02:34:19.344Z,0.00
2018-05-26T02:35:19.344Z,0.00
2018-05-26T02:36:19.331Z,0.00
2018-05-26T02:37:19.314Z,0.00
2018-05-26T02:39:19.289Z,0.00
2018-05-26T02:40:19.281Z,0.00
2018-05-26T02:41:19.273Z,0.00
2018-05-26T02:42:19.256Z,0.00
2018-05-26T02:43:19.253Z,0.00
2018-05-26T02:44:19.243Z,0.00
2018-05-26T02:45:19.224Z,0.00
2018-05-26T02:46:19.215Z,4.00
2018-05-26T02:47:19.208Z,4.00
2018-05-26T02:48:19.195Z,0.00
2018-05-26T02:49:19.182Z,0.00
2018-05-26T02:50:19.171Z,4.00
2018-05-26T02:51:19.162Z,4.00
2018-05-26T02:52:19.145Z,0.00
2018-05-26T02:53:19.131Z,4.00
2018-05-26T02:54:19.130Z,4.00
2018-05-26T02:55:19.117Z,4.00
2018-05-26T02:56:19.104Z,8.00
2018-05-26T02:57:19.086Z,8.00
2018-05-26T02:58:19.079Z,8.00
2018-05-26T02:59:19.061Z,8.00
2018-05-26T03:00:19.066Z,12.00
2018-05-26T03:01:19.040Z,12.00
2018-05-26T03:02:19.048Z,12.00
2018-05-26T03:03:19.020Z,12.00
2018-05-26T03:04:19.020Z,16.00
2018-05-26T03:05:18.999Z,16.00
2018-05-26T03:06:18.995Z,20.00
2018-05-26T03:07:18.988Z,24.00
2018-05-26T03:08:18.973Z,28.00
2018-05-26T03:09:18.962Z,28.00
2018-05-26T03:10:18.947Z,32.00
2018-05-26T03:11:18.935Z,36.00
2018-05-26T03:12:19.024Z,44.00
2018-05-26T03:13:18.921Z,48.00
2018-05-26T03:17:18.874Z,72.00
2018-05-26T03:18:18.854Z,80.00
2018-05-26T03:20:18.828Z,92.00
2018-05-26T03:21:18.827Z,100.00
2018-05-26T03:22:18.809Z,108.00
2018-05-26T03:23:18.802Z,120.00
2018-05-26T03:24:18.792Z,128.00
2018-05-26T03:25:18.785Z,140.00
2018-05-26T03:26:18.770Z,148.00
2018-05-26T03:27:18.758Z,160.00
2018-05-26T03:28:18.747Z,168.00
2018-05-26T03:29:18.732Z,180.00
2018-05-26T03:30:18.723Z,188.00
2018-05-26T03:31:18.712Z,200.00
2018-05-26T03:32:18.698Z,212.00
2018-05-26T03:33:18.692Z,224.00
2018-05-26T03:34:18.683Z,236.00
2018-05-26T03:35:18.667Z,248.00
2018-05-26T03:36:18.712Z,264.00
2018-05-26T03:37:18.640Z,280.00
2018-05-26T03:38:18.631Z,296.00
2018-05-26T03:39:18.618Z,316.00
2018-05-26T03:40:18.606Z,332.00
2018-05-26T03:41:18.596Z,352.00
2018-05-26T03:42:18.583Z,368.00
2018-05-26T03:43:18.577Z,384.00
2018-05-26T03:44:18.570Z,404.00
2018-05-26T03:45:18.548Z,424.00
2018-05-26T03:47:18.532Z,468.00
2018-05-26T03:48:18.519Z,488.00
2018-05-26T03:49:18.505Z,512.00
2018-05-26T03:50:18.500Z,536.00
2018-05-26T03:51:18.490Z,556.00
2018-05-26T03:52:18.471Z,580.00
2018-05-26T03:53:18.461Z,600.00
2018-05-26T03:54:18.450Z,624.00
2018-05-26T03:55:18.442Z,648.00
2018-05-26T03:56:18.426Z,668.00
2018-05-26T03:57:18.420Z,692.00
2018-05-26T03:58:18.401Z,708.00
2018-05-26T03:59:18.397Z,736.00
2018-05-26T04:00:18.378Z,760.00
2018-05-26T04:01:18.371Z,784.00
2018-05-26T04:02:18.366Z,808.00
2018-05-26T04:03:18.355Z,836.00
2018-05-26T04:04:18.340Z,856.00
2018-05-26T04:05:18.331Z,884.00
2018-05-26T04:06:18.325Z,908.00
2018-05-26T04:07:18.308Z,940.00
2018-05-26T04:08:18.294Z,964.00
2018-05-26T04:09:18.284Z,992.00
2018-05-26T04:10:18.272Z,1020.00
2018-05-26T04:11:18.296Z,1048.00
2018-05-26T04:12:18.250Z,1076.00
2018-05-26T04:13:18.240Z,1100.00
2018-05-26T04:14:18.227Z,1120.00
2018-05-26T04:15:18.220Z,1144.00
2018-05-26T04:16:18.208Z,1160.00
2018-05-26T04:17:18.191Z,1180.00
2018-05-26T04:18:18.181Z,1200.00
2018-05-26T04:19:18.166Z,1208.00
2018-05-26T04:20:18.168Z,1224.00
2018-05-26T04:21:18.151Z,1232.00
2018-05-26T04:22:18.137Z,1244.00
2018-05-26T04:23:18.127Z,1252.00
2018-05-26T04:24:18.112Z,1264.00
2018-05-26T04:25:18.104Z,1264.00
2018-05-26T04:26:18.096Z,1268.00
2018-05-26T04:27:18.184Z,1268.00
2018-05-26T04:28:18.103Z,1272.00
2018-05-26T04:29:18.071Z,1280.00
2018-05-26T04:30:18.047Z,1296.00
2018-05-26T04:31:18.038Z,1320.00
2018-05-26T04:32:18.032Z,1344.00
2018-05-26T04:33:18.012Z,1372.00
2018-05-26T04:34:18.011Z,1396.00
2018-05-26T04:35:18.024Z,1408.00
2018-05-26T04:36:17.983Z,1428.00
2018-05-26T04:37:17.976Z,1440.00
2018-05-26T04:38:17.960Z,1456.00
2018-05-26T04:39:17.948Z,1476.00
2018-05-26T04:40:17.938Z,1500.00
2018-05-26T04:41:17.929Z,1528.00
2018-05-26T04:42:17.920Z,1556.00
2018-05-26T04:43:17.907Z,1584.00
2018-05-26T04:44:17.894Z,1612.00
2018-05-26T04:45:17.883Z,1636.00
2018-05-26T04:46:17.866Z,1660.00
2018-05-26T04:47:17.866Z,1684.00
2018-05-26T04:48:17.847Z,1704.00
2018-05-26T04:49:17.837Z,1736.00
2018-05-26T04:50:17.834Z,1768.00
2018-05-26T04:51:17.819Z,1800.00
2018-05-26T04:52:17.806Z,1836.00
2018-05-26T04:53:17.796Z,1872.00
2018-05-26T04:54:17.787Z,1912.00
2018-05-26T04:55:18.381Z,1952.00
2018-05-26T04:56:17.764Z,1996.00
2018-05-26T04:57:17.751Z,2048.00
2018-05-26T04:58:17.741Z,2100.00
2018-05-26T04:59:17.725Z,2148.00
2018-05-26T05:00:17.723Z,2196.00
2018-05-26T05:01:17.706Z,2252.00
2018-05-26T05:02:17.691Z,2300.00
2018-05-26T05:03:17.694Z,2340.00
2018-05-26T05:04:17.678Z,2360.00
2018-05-26T05:05:17.665Z,2384.00
2018-05-26T05:06:17.800Z,2412.00
2018-05-26T05:07:17.639Z,2456.00
2018-05-26T05:08:17.805Z,2496.00
2018-05-26T05:09:17.617Z,2528.00
2018-05-26T05:10:17.695Z,2564.00
2018-05-26T05:11:17.601Z,2620.00
2018-05-26T05:12:17.636Z,2672.00
2018-05-26T05:13:17.582Z,2708.00
2018-05-26T05:14:17.671Z,2744.00
2018-05-26T05:15:17.559Z,2748.00
2018-05-26T05:16:17.649Z,2752.00
2018-05-26T05:17:17.543Z,2764.00
2018-05-26T05:18:17.617Z,2796.00
2018-05-26T05:20:17.546Z,2892.00
2018-05-26T05:21:17.494Z,2948.00
2018-05-26T05:22:17.477Z,3000.00
2018-05-26T05:23:17.472Z,3052.00
2018-05-26T05:24:17.457Z,3108.00
2018-05-26T05:25:17.451Z,3160.00
2018-05-26T05:26:17.442Z,3216.00
2018-05-26T05:27:17.428Z,3268.00
2018-05-26T05:28:17.419Z,3308.00
2018-05-26T05:29:17.406Z,3344.00
2018-05-26T05:30:17.390Z,3392.00
2018-05-26T05:31:17.388Z,3444.00
2018-05-26T05:32:17.378Z,3488.00
2018-05-26T05:33:17.362Z,3532.00
2018-05-26T05:34:17.351Z,3580.00
2018-05-26T05:35:17.340Z,3640.00
2018-05-26T05:36:17.327Z,3696.00
2018-05-26T05:37:17.317Z,3756.00
2018-05-26T05:38:17.312Z,3816.00
2018-05-26T05:39:17.301Z,3872.00
2018-05-26T05:40:17.292Z,3924.00
2018-05-26T05:41:17.279Z,3924.00
2018-05-26T05:42:17.266Z,3996.00
2018-05-26T05:43:17.257Z,4092.00
2018-05-26T05:44:17.250Z,4168.00
2018-05-26T05:45:17.238Z,4232.00
2018-05-26T05:46:17.228Z,4300.00
2018-05-26T05:47:17.219Z,4364.00
2018-05-26T05:48:17.206Z,4424.00
2018-05-26T05:49:17.201Z,4476.00
2018-05-26T05:50:17.183Z,4512.00
2018-05-26T05:51:17.177Z,4552.00
2018-05-26T05:52:17.168Z,4608.00
2018-05-26T05:53:17.158Z,4652.00
2018-05-26T05:54:17.147Z,4712.00
2018-05-26T05:55:17.141Z,4800.00
2018-05-26T05:56:17.153Z,4892.00
2018-05-26T05:57:17.111Z,4980.00
2018-05-26T05:58:17.107Z,5044.00
2018-05-26T05:59:17.101Z,5120.00
2018-05-26T06:00:17.092Z,5172.00
2018-05-26T06:01:17.074Z,5212.00
2018-05-26T06:02:17.068Z,5248.00
2018-05-26T06:03:17.069Z,5280.00
2018-05-26T06:04:17.041Z,5316.00
2018-05-26T06:05:17.035Z,5348.00
2018-05-26T06:06:17.028Z,5380.00
2018-05-26T06:07:17.019Z,5380.00
2018-05-26T06:08:17.009Z,5408.00
2018-05-26T06:09:17.001Z,5460.00
2018-05-26T06:10:16.980Z,5524.00
2018-05-26T06:12:16.962Z,5624.00
2018-05-26T06:13:16.951Z,5688.00
2018-05-26T06:14:16.949Z,5732.00
2018-05-26T06:15:16.932Z,5772.00
2018-05-26T06:16:16.922Z,5820.00
2018-05-26T06:17:16.918Z,5860.00
2018-05-26T06:18:16.902Z,5892.00
2018-05-26T06:19:16.893Z,5920.00
2018-05-26T06:20:16.885Z,5916.00
2018-05-26T06:21:16.883Z,5940.00
2018-05-26T06:22:16.873Z,5980.00
2018-05-26T06:23:16.863Z,6004.00
2018-05-26T06:24:16.847Z,5972.00
2018-05-26T06:25:16.840Z,5920.00
2018-05-26T06:26:16.829Z,5892.00
2018-05-26T06:27:16.824Z,5884.00
2018-05-26T06:28:16.805Z,5948.00
2018-05-26T06:29:16.799Z,5940.00
2018-05-26T06:30:16.794Z,5944.00
2018-05-26T06:31:16.783Z,6004.00
2018-05-26T06:32:16.771Z,6080.00
2018-05-26T06:33:16.755Z,6184.00
2018-05-26T06:34:16.750Z,6236.00
2018-05-26T06:35:16.745Z,6356.00
2018-05-26T06:36:16.739Z,6472.00
2018-05-26T06:37:16.717Z,6572.00
2018-05-26T06:38:16.709Z,6652.00
2018-05-26T06:39:16.697Z,6696.00
2018-05-26T06:40:16.695Z,6732.00
2018-05-26T06:41:16.687Z,6764.00
2018-05-26T06:42:16.680Z,6784.00
2018-05-26T06:43:16.672Z,6772.00
2018-05-26T06:44:16.664Z,6768.00
2018-05-26T06:45:16.717Z,6752.00
2018-05-26T06:46:16.637Z,6716.00
2018-05-26T06:47:16.626Z,6724.00
2018-05-26T06:48:16.612Z,6708.00
2018-05-26T06:49:16.610Z,6732.00
2018-05-26T06:50:16.611Z,6764.00
2018-05-26T06:51:16.648Z,6844.00
2018-05-26T06:52:16.580Z,6892.00
2018-05-26T06:53:16.571Z,6932.00
2018-05-26T06:54:16.711Z,6988.00
2018-05-26T06:55:16.549Z,7040.00
2018-05-26T06:56:16.545Z,7084.00
2018-05-26T06:57:16.539Z,7140.00
2018-05-26T06:58:16.682Z,7196.00
2018-05-26T06:59:16.515Z,7272.00
2018-05-26T07:00:16.609Z,7296.00
2018-05-26T07:01:16.502Z,7352.00
2018-05-26T07:02:16.539Z,7428.00
2018-05-26T07:03:16.477Z,7480.00
2018-05-26T07:04:16.502Z,7508.00
2018-05-26T07:05:16.470Z,7540.00
2018-05-26T07:06:16.503Z,7560.00
2018-05-26T07:07:16.442Z,7620.00
2018-05-26T07:08:16.487Z,7660.00
2018-05-26T07:09:16.429Z,7748.00
2018-05-26T07:10:16.423Z,7824.00
2018-05-26T07:11:16.410Z,7896.00
2018-05-26T07:12:16.398Z,7948.00
2018-05-26T07:13:16.393Z,7976.00
2018-05-26T07:14:16.378Z,8024.00
2018-05-26T07:15:16.377Z,8056.00
2018-05-26T07:16:16.365Z,8060.00
2018-05-26T07:17:16.362Z,8096.00
2018-05-26T07:18:16.345Z,8176.00
2018-05-26T07:19:16.337Z,8208.00
2018-05-26T07:20:16.330Z,8208.00
2018-05-26T07:21:16.321Z,8184.00
2018-05-26T07:22:16.312Z,8208.00
2018-05-26T07:23:16.308Z,8232.00
2018-05-26T07:24:16.304Z,8232.00
2018-05-26T07:25:16.284Z,8216.00
2018-05-26T07:26:16.278Z,8208.00
2018-05-26T07:27:16.268Z,8260.00
2018-05-26T07:28:16.262Z,8248.00
2018-05-26T07:29:16.258Z,8268.00
2018-05-26T07:30:16.241Z,8320.00
2018-05-26T07:31:16.242Z,8264.00
2018-05-26T07:32:16.233Z,8284.00
2018-05-26T07:33:16.219Z,8328.00
2018-05-26T07:34:16.213Z,8412.00
2018-05-26T07:35:16.198Z,8508.00
2018-05-26T07:36:16.208Z,8564.00
2018-05-26T07:37:16.318Z,8604.00
2018-05-26T07:38:16.175Z,8644.00
2018-05-26T07:39:16.171Z,8636.00
2018-05-26T07:40:16.164Z,8636.00
2018-05-26T07:41:16.156Z,8636.00
2018-05-26T07:42:16.140Z,8672.00
2018-05-26T07:43:16.191Z,8680.00
2018-05-26T07:44:16.133Z,8696.00
2018-05-26T07:45:16.124Z,8676.00
2018-05-26T07:46:16.107Z,8700.00
2018-05-26T07:47:16.109Z,8672.00
2018-05-26T07:48:16.103Z,8672.00
2018-05-26T07:51:16.076Z,8632.00
2018-05-26T07:52:16.074Z,8644.00
2018-05-26T07:53:16.077Z,8648.00
2018-05-26T07:54:16.049Z,8720.00
2018-05-26T07:55:16.051Z,8764.00
2018-05-26T07:56:16.037Z,8840.00
2018-05-26T07:57:16.038Z,8912.00
2018-05-26T07:58:16.017Z,8944.00
2018-05-26T07:59:16.012Z,8980.00
2018-05-26T08:00:16.015Z,8992.00
2018-05-26T08:01:15.995Z,8996.00
2018-05-26T08:02:15.989Z,8972.00
2018-05-26T08:03:15.979Z,8944.00
2018-05-26T08:04:15.973Z,8892.00
2018-05-26T08:05:15.966Z,8852.00
2018-05-26T08:06:15.957Z,8808.00
2018-05-26T08:07:15.948Z,8784.00
2018-05-26T08:08:15.947Z,8768.00
2018-05-26T08:09:15.938Z,8772.00
2018-05-26T08:10:15.928Z,8804.00
2018-05-26T08:11:15.922Z,8816.00
2018-05-26T08:12:15.919Z,8852.00
2018-05-26T08:13:15.909Z,8884.00
2018-05-26T08:14:15.896Z,8960.00
2018-05-26T08:15:15.893Z,9028.00
2018-05-26T08:16:15.889Z,9100.00
2018-05-26T08:17:15.909Z,9148.00
2018-05-26T08:18:15.871Z,9180.00
2018-05-26T08:19:15.868Z,9204.00
2018-05-26T08:20:15.858Z,9228.00
2018-05-26T08:21:15.848Z,9268.00
2018-05-26T08:22:15.851Z,9312.00
2018-05-26T08:23:15.843Z,9340.00
2018-05-26T08:24:15.832Z,9388.00
2018-05-26T08:25:15.820Z,9432.00
2018-05-26T08:26:15.817Z,9496.00
2018-05-26T08:27:15.889Z,9556.00
2018-05-26T08:28:15.804Z,9612.00
2018-05-26T08:29:15.804Z,9624.00
2018-05-26T08:30:15.788Z,9708.00
2018-05-26T08:31:15.785Z,9776.00
2018-05-26T08:32:15.788Z,9888.00
2018-05-26T08:33:15.797Z,9940.00
2018-05-26T08:34:15.768Z,10004.00
2018-05-26T08:35:15.778Z,10132.00
2018-05-26T08:36:15.765Z,10276.00
2018-05-26T08:37:15.762Z,10488.00
2018-05-26T08:38:15.755Z,10620.00
2018-05-26T08:39:15.760Z,10780.00
2018-05-26T08:40:15.753Z,10812.00
2018-05-26T08:41:15.753Z,10920.00
2018-05-26T08:42:15.740Z,11284.00
2018-05-26T08:43:15.740Z,12776.00
2018-05-26T08:44:15.743Z,17984.00
2018-05-26T08:45:15.741Z,24992.00
2018-05-26T08:46:15.744Z,33056.00
2018-05-26T08:47:15.741Z,41760.00
2018-05-26T08:48:15.740Z,51808.00
2018-05-26T08:49:15.729Z,58336.00
2018-05-26T08:50:15.733Z,63648.00
2018-05-26T08:51:15.735Z,67296.00
2018-05-26T08:52:15.730Z,69376.00
2018-05-26T08:53:15.729Z,69408.00
2018-05-26T08:54:15.728Z,62912.00
2018-05-26T08:55:15.740Z,60800.00
2018-05-26T08:56:15.735Z,62016.00
2018-05-26T08:57:15.735Z,67648.00
2018-05-26T08:58:15.740Z,78240.00
2018-05-26T08:59:15.737Z,74560.00
2018-05-26T09:00:15.737Z,80224.00
2018-05-26T09:01:15.740Z,68320.00
2018-05-26T09:02:15.782Z,32640.00
2018-05-26T09:03:15.743Z,23232.00
2018-05-26T09:04:15.754Z,23488.00
2018-05-26T09:05:15.744Z,23296.00
2018-05-26T09:06:15.748Z,24128.00
2018-05-26T09:07:15.759Z,25440.00
2018-05-26T09:08:15.750Z,25248.00
2018-05-26T09:09:15.777Z,26336.00
2018-05-26T09:10:15.763Z,30400.00
2018-05-26T09:11:15.792Z,33248.00
2018-05-26T09:13:15.765Z,36288.00
2018-05-26T09:14:15.769Z,36608.00
2018-05-26T09:15:15.776Z,36992.00
2018-05-26T09:16:15.779Z,41216.00
2018-05-26T09:17:15.786Z,42880.00
2018-05-26T09:18:15.788Z,41024.00
2018-05-26T09:19:15.792Z,42880.00
2018-05-26T09:20:15.789Z,44096.00
2018-05-26T09:21:15.789Z,42208.00
2018-05-26T09:22:15.795Z,41696.00
2018-05-26T09:23:15.802Z,45376.00
2018-05-26T09:24:15.800Z,47712.00
2018-05-26T09:25:15.858Z,44992.00
2018-05-26T09:26:15.798Z,48544.00
2018-05-26T09:27:15.809Z,52224.00
2018-05-26T09:28:15.815Z,49600.00
2018-05-26T09:29:15.817Z,47072.00
2018-05-26T09:30:15.837Z,48096.00
2018-05-26T09:31:15.831Z,48384.00
2018-05-26T09:32:15.817Z,46400.00
2018-05-26T09:33:15.822Z,47104.00
2018-05-26T09:34:15.832Z,46848.00
2018-05-26T09:35:15.831Z,44224.00
2018-05-26T09:36:15.830Z,44928.00
2018-05-26T09:37:15.836Z,47072.00
2018-05-26T09:38:15.833Z,46464.00
2018-05-26T09:39:15.846Z,47680.00
2018-05-26T09:40:15.840Z,47616.00
2018-05-26T09:41:15.834Z,48704.00
2018-05-26T09:42:15.837Z,47936.00
2018-05-26T09:43:15.846Z,47072.00
2018-05-26T09:44:15.840Z,43648.00
2018-05-26T09:45:15.843Z,42656.00
2018-05-26T09:46:15.844Z,43008.00
2018-05-26T09:47:15.843Z,42624.00
2018-05-26T09:48:15.850Z,42912.00
2018-05-26T09:49:15.850Z,41696.00
2018-05-26T09:50:15.850Z,41056.00
2018-05-26T09:51:15.849Z,42560.00
2018-05-26T09:52:15.846Z,40416.00
2018-05-26T09:53:15.846Z,36096.00
2018-05-26T09:54:15.853Z,29600.00
2018-05-26T09:55:15.849Z,20064.00
2018-05-26T09:56:15.854Z,16256.00
2018-05-26T09:57:15.846Z,15648.00
2018-05-26T09:58:16.298Z,14788.00
2018-05-26T09:59:15.852Z,14376.00
2018-05-26T10:00:15.846Z,14140.00
2018-05-26T10:01:15.853Z,13888.00
2018-05-26T10:02:15.849Z,13632.00
2018-05-26T10:03:15.852Z,13668.00
2018-05-26T10:04:15.876Z,13416.00
2018-05-26T10:05:15.849Z,12928.00
2018-05-26T10:06:15.846Z,12508.00
2018-05-26T10:07:15.844Z,12324.00
2018-05-26T10:08:15.897Z,12248.00
2018-05-26T10:09:15.872Z,12124.00
2018-05-26T10:10:15.898Z,12068.00
2018-05-26T10:11:15.850Z,11972.00
2018-05-26T10:12:15.851Z,11628.00
2018-05-26T10:13:15.840Z,11388.00
2018-05-26T10:14:15.840Z,11472.00
2018-05-26T10:15:15.839Z,11684.00
2018-05-26T10:16:15.837Z,11692.00
2018-05-26T10:17:15.840Z,11648.00
2018-05-26T10:18:15.838Z,11600.00
2018-05-26T10:20:15.832Z,10908.00
2018-05-26T10:21:15.843Z,10932.00
2018-05-26T10:22:15.848Z,10956.00
2018-05-26T10:23:15.837Z,10876.00
2018-05-26T10:24:15.829Z,10912.00
2018-05-26T10:25:15.828Z,10788.00
2018-05-26T10:26:15.877Z,10836.00
2018-05-26T10:27:15.818Z,10880.00
2018-05-26T10:28:15.819Z,10888.00
2018-05-26T10:29:15.825Z,10876.00
2018-05-26T10:30:15.820Z,10844.00
2018-05-26T10:31:15.898Z,10708.00
2018-05-26T10:32:15.845Z,10372.00
2018-05-26T10:33:15.844Z,10184.00
2018-05-26T10:34:15.807Z,10376.00
2018-05-26T10:35:15.860Z,10184.00
2018-05-26T10:36:15.814Z,10164.00
2018-05-26T10:37:15.833Z,10188.00
2018-05-26T10:38:15.801Z,10236.00
2018-05-26T10:39:15.901Z,10204.00
2018-05-26T10:40:15.789Z,10188.00
2018-05-26T10:41:15.796Z,10324.00
2018-05-26T10:42:15.782Z,10268.00
2018-05-26T10:43:15.793Z,10060.00
2018-05-26T10:44:15.783Z,10092.00
2018-05-26T10:45:15.788Z,9972.00
2018-05-26T10:46:15.769Z,9732.00
2018-05-26T10:47:15.793Z,9848.00
2018-05-26T10:48:15.766Z,9672.00
2018-05-26T10:49:15.770Z,9508.00
2018-05-26T10:50:15.760Z,9492.00
2018-05-26T10:51:15.767Z,9720.00
2018-05-26T10:52:15.753Z,9832.00
2018-05-26T10:53:15.750Z,9716.00
2018-05-26T10:54:15.761Z,9740.00
2018-05-26T10:55:15.745Z,9900.00
2018-05-26T10:56:15.746Z,9948.00
2018-05-26T10:57:15.743Z,10004.00
2018-05-26T10:58:15.741Z,9948.00
2018-05-26T10:59:15.741Z,9872.00
2018-05-26T11:00:15.782Z,9788.00
2018-05-26T11:01:15.727Z,9676.00
2018-05-26T11:02:15.806Z,9584.00
2018-05-26T11:03:15.711Z,9688.00
2018-05-26T11:04:15.773Z,9628.00
2018-05-26T11:05:15.711Z,9584.00
2018-05-26T11:06:15.728Z,9644.00
2018-05-26T11:07:15.707Z,9684.00
2018-05-26T11:08:15.701Z,9664.00
2018-05-26T11:09:15.693Z,9696.00
2018-05-26T11:10:15.742Z,9700.00
2018-05-26T11:11:15.685Z,9660.00
2018-05-26T11:12:15.682Z,9576.00
2018-05-26T11:13:15.689Z,9568.00
2018-05-26T11:14:15.671Z,9604.00
2018-05-26T11:15:15.672Z,9628.00
2018-05-26T11:16:15.850Z,9632.00
2018-05-26T11:17:15.665Z,9664.00
2018-05-26T11:18:15.672Z,9660.00
2018-05-26T11:19:15.659Z,9628.00
2018-05-26T11:20:15.709Z,9704.00
2018-05-26T11:21:15.650Z,9600.00
2018-05-26T11:22:15.651Z,9336.00
2018-05-26T11:23:15.663Z,9392.00
2018-05-26T11:24:15.740Z,9336.00
2018-05-26T11:25:15.644Z,9392.00
2018-05-26T11:26:15.684Z,9348.00
2018-05-26T11:27:15.627Z,9312.00
2018-05-26T11:28:15.643Z,9304.00
2018-05-26T11:29:15.627Z,9336.00
2018-05-26T11:30:15.621Z,9364.00
2018-05-26T11:31:15.621Z,9204.00
2018-05-26T11:32:15.626Z,9196.00
2018-05-26T11:33:15.689Z,9144.00
2018-05-26T11:34:15.612Z,9116.00
2018-05-26T11:35:15.660Z,9068.00
2018-05-26T11:36:15.602Z,9108.00
2018-05-26T11:37:15.602Z,9148.00
2018-05-26T11:38:15.598Z,9176.00
2018-05-26T11:39:15.604Z,9080.00
2018-05-26T11:40:15.590Z,9004.00
2018-05-26T11:41:15.586Z,9132.00
2018-05-26T11:42:15.580Z,9212.00
2018-05-26T11:43:15.583Z,9184.00
2018-05-26T11:44:15.577Z,8956.00
2018-05-26T11:45:15.589Z,9036.00
2018-05-26T11:46:15.569Z,9064.00
2018-05-26T11:47:15.566Z,9140.00
2018-05-26T11:48:15.557Z,9124.00
2018-05-26T11:49:15.559Z,9016.00
2018-05-26T11:50:15.557Z,8988.00
2018-05-26T11:51:15.548Z,9072.00
2018-05-26T11:52:15.547Z,8948.00
2018-05-26T11:53:15.555Z,8940.00
2018-05-26T11:54:15.548Z,9004.00
2018-05-26T11:55:15.542Z,9044.00
2018-05-26T11:56:15.546Z,8940.00
2018-05-26T11:57:15.547Z,8836.00
2018-05-26T11:58:15.538Z,8600.00
2018-05-26T11:59:15.528Z,8496.00
2018-05-26T12:00:15.607Z,8892.00
2018-05-26T12:01:15.530Z,8972.00
2018-05-26T12:02:15.573Z,8944.00
2018-05-26T12:03:15.518Z,8836.00
2018-05-26T12:04:15.561Z,8732.00
2018-05-26T12:05:15.509Z,8896.00
2018-05-26T12:06:15.509Z,8940.00
2018-05-26T12:07:15.509Z,8824.00
2018-05-26T12:08:15.509Z,8756.00
2018-05-26T12:09:15.501Z,9116.00
2018-05-26T12:10:15.502Z,9048.00
2018-05-26T12:11:15.499Z,8920.00
2018-05-26T12:12:15.501Z,8988.00
2018-05-26T12:13:15.492Z,8940.00
2018-05-26T12:14:15.495Z,8984.00
2018-05-26T12:15:15.489Z,8928.00
2018-05-26T12:16:15.486Z,8872.00
2018-05-26T12:17:15.484Z,8932.00
2018-05-26T12:18:15.482Z,8756.00
2018-05-26T12:19:15.476Z,8696.00
2018-05-26T12:20:15.473Z,8824.00
2018-05-26T12:21:15.472Z,8752.00
2018-05-26T12:22:15.470Z,8636.00
2018-05-26T12:23:15.469Z,8884.00
2018-05-26T12:24:15.467Z,8924.00
2018-05-26T12:25:15.460Z,9128.00
2018-05-26T12:26:15.457Z,9036.00
2018-05-26T12:27:15.450Z,9068.00
2018-05-26T12:28:15.451Z,9048.00
2018-05-26T12:29:15.447Z,8924.00
2018-05-26T12:30:15.451Z,8848.00
2018-05-26T12:31:15.447Z,8912.00
2018-05-26T12:32:15.437Z,8984.00
2018-05-26T12:33:15.439Z,9048.00
2018-05-26T12:34:15.438Z,8956.00
2018-05-26T12:35:15.428Z,8580.00